sensor_id;sensor_type;location;lat;lon;timestamp;P1;durP1;ratioP1;P2;durP2;ratioP2
15673;SDS011;7937;48.090;16.212;2022-12-18T00:03:00;10.80;;;7.77;;
15673;SDS011;7937;48.090;16.212;2022-12-18T00:06:02;12.73;;;7.93;;
15673;SDS011;7937;48.090;16.212;2022-12-18T00:09:04;13.90;;;8.57;;
15673;SDS011;7937;48.090;16.212;2022-12-18T00:12:06;11.97;;;6.97;;
15673;SDS011;7937;48.090;16.212;2022-12-18T00:15:16;12.90;;;7.90;;
15673;SDS011;7937;48.090;16.212;2022-12-18T00:18:18;12.33;;;7.10;;
15673;SDS011;7937;48.090;16.212;2022-12-18T00:21:21;13.63;;;8.70;;
15673;SDS011;7937;48.090;16.212;2022-12-18T00:24:23;12.27;;;7.93;;
15673;SDS011;7937;48.090;16.212;2022-12-18T00:27:25;11.73;;;7.53;;
15673;SDS011;7937;48.090;16.212;2022-12-18T00:30:28;14.83;;;7.90;;
15673;SDS011;7937;48.090;16.212;2022-12-18T00:33:30;11.70;;;7.30;;
15673;SDS011;7937;48.090;16.212;2022-12-18T00:36:33;11.30;;;7.00;;
15673;SDS011;7937;48.090;16.212;2022-12-18T00:39:35;11.97;;;6.60;;
15673;SDS011;7937;48.090;16.212;2022-12-18T00:42:37;11.87;;;7.20;;
15673;SDS011;7937;48.090;16.212;2022-12-18T00:45:58;12.80;;;7.37;;
15673;SDS011;7937;48.090;16.212;2022-12-18T00:49:00;11.70;;;6.97;;
15673;SDS011;7937;48.090;16.212;2022-12-18T00:52:02;13.23;;;7.10;;
15673;SDS011;7937;48.090;16.212;2022-12-18T00:55:05;11.20;;;6.93;;
15673;SDS011;7937;48.090;16.212;2022-12-18T00:58:08;14.30;;;7.50;;
15673;SDS011;7937;48.090;16.212;2022-12-18T01:01:11;11.03;;;6.37;;
15673;SDS011;7937;48.090;16.212;2022-12-18T01:04:14;11.00;;;6.60;;
15673;SDS011;7937;48.090;16.212;2022-12-18T01:07:19;11.83;;;6.17;;
15673;SDS011;7937;48.090;16.212;2022-12-18T01:10:21;10.80;;;5.90;;
15673;SDS011;7937;48.090;16.212;2022-12-18T01:13:25;10.27;;;6.37;;
15673;SDS011;7937;48.090;16.212;2022-12-18T01:16:27;11.07;;;6.10;;
15673;SDS011;7937;48.090;16.212;2022-12-18T01:19:30;8.23;;;5.47;;
15673;SDS011;7937;48.090;16.212;2022-12-18T01:22:32;9.27;;;5.47;;
15673;SDS011;7937;48.090;16.212;2022-12-18T01:25:37;8.00;;;5.50;;
15673;SDS011;7937;48.090;16.212;2022-12-18T01:28:43;11.27;;;6.00;;
15673;SDS011;7937;48.090;16.212;2022-12-18T01:31:46;8.87;;;5.43;;
15673;SDS011;7937;48.090;16.212;2022-12-18T01:34:48;8.93;;;5.30;;
15673;SDS011;7937;48.090;16.212;2022-12-18T01:37:54;8.90;;;6.20;;
15673;SDS011;7937;48.090;16.212;2022-12-18T01:40:57;9.47;;;5.90;;
15673;SDS011;7937;48.090;16.212;2022-12-18T01:44:01;9.97;;;6.37;;
15673;SDS011;7937;48.090;16.212;2022-12-18T01:47:04;9.33;;;6.30;;
15673;SDS011;7937;48.090;16.212;2022-12-18T01:50:17;9.90;;;6.07;;
15673;SDS011;7937;48.090;16.212;2022-12-18T01:53:20;11.47;;;6.57;;
15673;SDS011;7937;48.090;16.212;2022-12-18T01:56:25;13.27;;;7.17;;
15673;SDS011;7937;48.090;16.212;2022-12-18T01:59:27;13.30;;;7.73;;
15673;SDS011;7937;48.090;16.212;2022-12-18T02:02:31;14.47;;;7.83;;
15673;SDS011;7937;48.090;16.212;2022-12-18T02:05:48;12.63;;;7.70;;
15673;SDS011;7937;48.090;16.212;2022-12-18T02:12:16;14.53;;;8.20;;
15673;SDS011;7937;48.090;16.212;2022-12-18T02:15:23;16.43;;;8.33;;
15673;SDS011;7937;48.090;16.212;2022-12-18T02:18:38;14.57;;;8.40;;
15673;SDS011;7937;48.090;16.212;2022-12-18T02:21:48;14.73;;;8.90;;
15673;SDS011;7937;48.090;16.212;2022-12-18T02:24:59;17.63;;;9.80;;
15673;SDS011;7937;48.090;16.212;2022-12-18T02:28:13;17.70;;;9.83;;
15673;SDS011;7937;48.090;16.212;2022-12-18T02:31:18;16.63;;;9.97;;
15673;SDS011;7937;48.090;16.212;2022-12-18T02:34:29;18.70;;;10.80;;
15673;SDS011;7937;48.090;16.212;2022-12-18T02:37:34;16.17;;;10.23;;
15673;SDS011;7937;48.090;16.212;2022-12-18T02:40:40;18.13;;;9.77;;
15673;SDS011;7937;48.090;16.212;2022-12-18T02:43:46;22.43;;;10.70;;
15673;SDS011;7937;48.090;16.212;2022-12-18T02:47:08;23.07;;;11.90;;
15673;SDS011;7937;48.090;16.212;2022-12-18T02:50:30;22.20;;;11.83;;
15673;SDS011;7937;48.090;16.212;2022-12-18T02:53:43;21.27;;;11.63;;
15673;SDS011;7937;48.090;16.212;2022-12-18T02:56:53;24.27;;;13.07;;
15673;SDS011;7937;48.090;16.212;2022-12-18T03:03:13;22.17;;;12.70;;
15673;SDS011;7937;48.090;16.212;2022-12-18T03:07:05;20.67;;;12.00;;
15673;SDS011;7937;48.090;16.212;2022-12-18T03:09:50;19.77;;;11.53;;
15673;SDS011;7937;48.090;16.212;2022-12-18T03:12:58;21.63;;;11.80;;
15673;SDS011;7937;48.090;16.212;2022-12-18T03:16:09;21.07;;;11.87;;
15673;SDS011;7937;48.090;16.212;2022-12-18T03:19:18;21.67;;;11.80;;
15673;SDS011;7937;48.090;16.212;2022-12-18T03:22:26;19.70;;;10.23;;
15673;SDS011;7937;48.090;16.212;2022-12-18T03:25:31;20.07;;;10.93;;
15673;SDS011;7937;48.090;16.212;2022-12-18T03:28:38;19.67;;;11.03;;
15673;SDS011;7937;48.090;16.212;2022-12-18T03:31:45;21.07;;;10.87;;
15673;SDS011;7937;48.090;16.212;2022-12-18T03:34:53;17.10;;;9.40;;
15673;SDS011;7937;48.090;16.212;2022-12-18T03:38:05;16.60;;;9.47;;
15673;SDS011;7937;48.090;16.212;2022-12-18T03:41:16;16.37;;;8.43;;
15673;SDS011;7937;48.090;16.212;2022-12-18T03:48:05;16.47;;;8.70;;
15673;SDS011;7937;48.090;16.212;2022-12-18T03:51:34;15.67;;;9.83;;
15673;SDS011;7937;48.090;16.212;2022-12-18T03:54:45;18.80;;;8.60;;
15673;SDS011;7937;48.090;16.212;2022-12-18T03:57:51;16.03;;;9.10;;
15673;SDS011;7937;48.090;16.212;2022-12-18T04:00:56;16.17;;;9.17;;
15673;SDS011;7937;48.090;16.212;2022-12-18T04:04:03;16.07;;;9.33;;
15673;SDS011;7937;48.090;16.212;2022-12-18T04:07:10;15.43;;;8.00;;
15673;SDS011;7937;48.090;16.212;2022-12-18T04:10:14;14.67;;;8.43;;
15673;SDS011;7937;48.090;16.212;2022-12-18T04:13:24;15.13;;;8.63;;
15673;SDS011;7937;48.090;16.212;2022-12-18T04:16:32;14.60;;;8.63;;
15673;SDS011;7937;48.090;16.212;2022-12-18T04:19:37;16.33;;;9.53;;
15673;SDS011;7937;48.090;16.212;2022-12-18T04:22:41;17.27;;;7.70;;
15673;SDS011;7937;48.090;16.212;2022-12-18T04:25:45;15.83;;;8.93;;
15673;SDS011;7937;48.090;16.212;2022-12-18T04:28:54;14.47;;;8.53;;
15673;SDS011;7937;48.090;16.212;2022-12-18T04:31:56;14.87;;;8.20;;
15673;SDS011;7937;48.090;16.212;2022-12-18T04:34:59;16.50;;;8.23;;
15673;SDS011;7937;48.090;16.212;2022-12-18T04:38:02;14.37;;;8.43;;
15673;SDS011;7937;48.090;16.212;2022-12-18T04:41:04;16.27;;;9.40;;
15673;SDS011;7937;48.090;16.212;2022-12-18T04:44:06;15.80;;;9.60;;
15673;SDS011;7937;48.090;16.212;2022-12-18T04:47:08;16.73;;;8.77;;
15673;SDS011;7937;48.090;16.212;2022-12-18T04:50:10;15.90;;;8.30;;
15673;SDS011;7937;48.090;16.212;2022-12-18T04:53:12;15.07;;;7.80;;
15673;SDS011;7937;48.090;16.212;2022-12-18T04:56:15;15.93;;;8.37;;
15673;SDS011;7937;48.090;16.212;2022-12-18T04:59:17;17.57;;;8.37;;
15673;SDS011;7937;48.090;16.212;2022-12-18T05:02:19;15.87;;;8.50;;
15673;SDS011;7937;48.090;16.212;2022-12-18T05:05:22;14.07;;;8.37;;
15673;SDS011;7937;48.090;16.212;2022-12-18T05:08:24;14.57;;;7.80;;
15673;SDS011;7937;48.090;16.212;2022-12-18T05:11:26;11.90;;;7.20;;
15673;SDS011;7937;48.090;16.212;2022-12-18T05:14:28;15.70;;;8.50;;
15673;SDS011;7937;48.090;16.212;2022-12-18T05:17:30;11.87;;;7.63;;
15673;SDS011;7937;48.090;16.212;2022-12-18T05:20:32;13.53;;;7.37;;
15673;SDS011;7937;48.090;16.212;2022-12-18T05:23:35;14.40;;;7.83;;
15673;SDS011;7937;48.090;16.212;2022-12-18T05:26:38;14.13;;;7.23;;
15673;SDS011;7937;48.090;16.212;2022-12-18T05:29:40;11.60;;;7.23;;
15673;SDS011;7937;48.090;16.212;2022-12-18T05:32:42;12.63;;;8.00;;
15673;SDS011;7937;48.090;16.212;2022-12-18T05:35:44;14.10;;;8.00;;
15673;SDS011;7937;48.090;16.212;2022-12-18T05:38:51;11.00;;;6.77;;
15673;SDS011;7937;48.090;16.212;2022-12-18T05:41:53;12.57;;;7.67;;
15673;SDS011;7937;48.090;16.212;2022-12-18T05:44:55;17.73;;;9.73;;
15673;SDS011;7937;48.090;16.212;2022-12-18T05:47:57;14.37;;;7.33;;
15673;SDS011;7937;48.090;16.212;2022-12-18T05:51:03;15.10;;;8.00;;
15673;SDS011;7937;48.090;16.212;2022-12-18T05:54:10;14.83;;;7.53;;
15673;SDS011;7937;48.090;16.212;2022-12-18T05:57:12;13.43;;;7.60;;
15673;SDS011;7937;48.090;16.212;2022-12-18T06:00:15;15.40;;;7.80;;
15673;SDS011;7937;48.090;16.212;2022-12-18T06:03:17;13.60;;;7.60;;
15673;SDS011;7937;48.090;16.212;2022-12-18T06:06:21;14.47;;;7.73;;
15673;SDS011;7937;48.090;16.212;2022-12-18T06:09:25;17.57;;;7.90;;
15673;SDS011;7937;48.090;16.212;2022-12-18T06:12:27;15.87;;;8.20;;
15673;SDS011;7937;48.090;16.212;2022-12-18T06:15:29;15.07;;;7.80;;
15673;SDS011;7937;48.090;16.212;2022-12-18T06:18:31;15.03;;;7.73;;
15673;SDS011;7937;48.090;16.212;2022-12-18T06:21:34;15.30;;;7.93;;
15673;SDS011;7937;48.090;16.212;2022-12-18T06:24:36;15.67;;;7.73;;
15673;SDS011;7937;48.090;16.212;2022-12-18T06:27:38;14.97;;;8.63;;
15673;SDS011;7937;48.090;16.212;2022-12-18T06:30:45;17.43;;;7.97;;
15673;SDS011;7937;48.090;16.212;2022-12-18T06:33:48;12.33;;;6.93;;
15673;SDS011;7937;48.090;16.212;2022-12-18T06:36:50;13.60;;;7.33;;
15673;SDS011;7937;48.090;16.212;2022-12-18T06:39:53;15.17;;;7.83;;
15673;SDS011;7937;48.090;16.212;2022-12-18T06:42:55;15.13;;;7.83;;
15673;SDS011;7937;48.090;16.212;2022-12-18T06:45:59;17.37;;;8.30;;
15673;SDS011;7937;48.090;16.212;2022-12-18T06:49:01;18.07;;;8.57;;
15673;SDS011;7937;48.090;16.212;2022-12-18T06:52:03;16.10;;;8.23;;
15673;SDS011;7937;48.090;16.212;2022-12-18T06:55:09;14.53;;;7.73;;
15673;SDS011;7937;48.090;16.212;2022-12-18T06:58:12;13.53;;;7.63;;
15673;SDS011;7937;48.090;16.212;2022-12-18T07:01:14;18.17;;;7.67;;
15673;SDS011;7937;48.090;16.212;2022-12-18T07:04:17;15.50;;;7.83;;
15673;SDS011;7937;48.090;16.212;2022-12-18T07:07:19;15.53;;;8.60;;
15673;SDS011;7937;48.090;16.212;2022-12-18T07:10:21;14.97;;;8.27;;
15673;SDS011;7937;48.090;16.212;2022-12-18T07:13:23;14.77;;;7.63;;
15673;SDS011;7937;48.090;16.212;2022-12-18T07:16:25;15.77;;;7.67;;
15673;SDS011;7937;48.090;16.212;2022-12-18T07:19:29;12.47;;;7.50;;
15673;SDS011;7937;48.090;16.212;2022-12-18T07:22:32;14.47;;;8.13;;
15673;SDS011;7937;48.090;16.212;2022-12-18T07:25:35;14.30;;;7.97;;
15673;SDS011;7937;48.090;16.212;2022-12-18T07:28:38;13.57;;;7.97;;
15673;SDS011;7937;48.090;16.212;2022-12-18T07:31:41;13.63;;;7.17;;
15673;SDS011;7937;48.090;16.212;2022-12-18T07:34:43;16.93;;;8.27;;
15673;SDS011;7937;48.090;16.212;2022-12-18T07:37:47;15.30;;;7.17;;
15673;SDS011;7937;48.090;16.212;2022-12-18T07:40:49;15.17;;;7.67;;
15673;SDS011;7937;48.090;16.212;2022-12-18T07:43:51;14.23;;;7.50;;
15673;SDS011;7937;48.090;16.212;2022-12-18T07:46:53;12.07;;;7.53;;
15673;SDS011;7937;48.090;16.212;2022-12-18T07:49:56;13.67;;;7.17;;
15673;SDS011;7937;48.090;16.212;2022-12-18T07:52:59;15.97;;;8.20;;
15673;SDS011;7937;48.090;16.212;2022-12-18T07:56:06;14.10;;;7.10;;
15673;SDS011;7937;48.090;16.212;2022-12-18T07:59:30;13.50;;;7.63;;
15673;SDS011;7937;48.090;16.212;2022-12-18T08:02:32;13.73;;;7.43;;
15673;SDS011;7937;48.090;16.212;2022-12-18T08:05:35;14.03;;;8.30;;
15673;SDS011;7937;48.090;16.212;2022-12-18T08:08:37;13.47;;;8.77;;
15673;SDS011;7937;48.090;16.212;2022-12-18T08:11:39;17.33;;;8.57;;
15673;SDS011;7937;48.090;16.212;2022-12-18T08:14:41;18.23;;;8.83;;
15673;SDS011;7937;48.090;16.212;2022-12-18T08:17:43;15.13;;;9.00;;
15673;SDS011;7937;48.090;16.212;2022-12-18T08:20:45;17.03;;;8.67;;
15673;SDS011;7937;48.090;16.212;2022-12-18T08:23:48;16.93;;;8.50;;
15673;SDS011;7937;48.090;16.212;2022-12-18T08:26:52;16.73;;;9.57;;
15673;SDS011;7937;48.090;16.212;2022-12-18T08:30:14;17.17;;;9.67;;
15673;SDS011;7937;48.090;16.212;2022-12-18T08:33:16;16.53;;;8.37;;
15673;SDS011;7937;48.090;16.212;2022-12-18T08:36:19;21.73;;;9.83;;
15673;SDS011;7937;48.090;16.212;2022-12-18T08:39:24;15.53;;;8.70;;
15673;SDS011;7937;48.090;16.212;2022-12-18T08:42:27;18.57;;;8.97;;
15673;SDS011;7937;48.090;16.212;2022-12-18T08:45:48;17.63;;;8.70;;
15673;SDS011;7937;48.090;16.212;2022-12-18T08:48:51;15.47;;;8.10;;
15673;SDS011;7937;48.090;16.212;2022-12-18T08:51:54;16.10;;;8.37;;
15673;SDS011;7937;48.090;16.212;2022-12-18T08:54:58;17.43;;;9.13;;
15673;SDS011;7937;48.090;16.212;2022-12-18T08:58:00;16.13;;;9.20;;
15673;SDS011;7937;48.090;16.212;2022-12-18T09:01:03;15.07;;;8.50;;
15673;SDS011;7937;48.090;16.212;2022-12-18T09:04:07;16.30;;;8.53;;
15673;SDS011;7937;48.090;16.212;2022-12-18T09:07:11;16.60;;;9.17;;
15673;SDS011;7937;48.090;16.212;2022-12-18T09:10:13;16.93;;;9.40;;
15673;SDS011;7937;48.090;16.212;2022-12-18T09:13:15;15.87;;;9.43;;
15673;SDS011;7937;48.090;16.212;2022-12-18T09:16:18;19.33;;;9.83;;
15673;SDS011;7937;48.090;16.212;2022-12-18T09:19:21;18.77;;;10.97;;
15673;SDS011;7937;48.090;16.212;2022-12-18T09:22:23;19.30;;;10.33;;
15673;SDS011;7937;48.090;16.212;2022-12-18T09:25:25;17.77;;;10.53;;
15673;SDS011;7937;48.090;16.212;2022-12-18T09:28:29;21.87;;;12.73;;
15673;SDS011;7937;48.090;16.212;2022-12-18T09:31:31;22.03;;;12.13;;
15673;SDS011;7937;48.090;16.212;2022-12-18T09:34:33;21.60;;;11.70;;
15673;SDS011;7937;48.090;16.212;2022-12-18T09:37:35;20.83;;;12.17;;
15673;SDS011;7937;48.090;16.212;2022-12-18T09:43:53;23.27;;;13.40;;
15673;SDS011;7937;48.090;16.212;2022-12-18T09:47:43;21.10;;;12.23;;
15673;SDS011;7937;48.090;16.212;2022-12-18T09:50:36;19.87;;;11.67;;
15673;SDS011;7937;48.090;16.212;2022-12-18T09:53:42;23.53;;;13.60;;
15673;SDS011;7937;48.090;16.212;2022-12-18T09:56:52;23.27;;;13.33;;
15673;SDS011;7937;48.090;16.212;2022-12-18T10:00:06;24.20;;;13.37;;
15673;SDS011;7937;48.090;16.212;2022-12-18T10:03:15;23.90;;;13.47;;
15673;SDS011;7937;48.090;16.212;2022-12-18T10:06:29;22.77;;;12.93;;
15673;SDS011;7937;48.090;16.212;2022-12-18T10:09:47;21.67;;;13.40;;
15673;SDS011;7937;48.090;16.212;2022-12-18T10:13:09;24.47;;;14.30;;
15673;SDS011;7937;48.090;16.212;2022-12-18T10:28:47;24.27;;;13.87;;
15673;SDS011;7937;48.090;16.212;2022-12-18T10:31:51;27.20;;;14.87;;
15673;SDS011;7937;48.090;16.212;2022-12-18T10:34:54;27.87;;;13.97;;
15673;SDS011;7937;48.090;16.212;2022-12-18T10:38:02;25.80;;;14.50;;
15673;SDS011;7937;48.090;16.212;2022-12-18T10:44:27;23.73;;;14.00;;
15673;SDS011;7937;48.090;16.212;2022-12-18T10:47:30;27.87;;;14.83;;
15673;SDS011;7937;48.090;16.212;2022-12-18T10:50:32;27.13;;;14.67;;
15673;SDS011;7937;48.090;16.212;2022-12-18T10:53:57;27.50;;;15.27;;
15673;SDS011;7937;48.090;16.212;2022-12-18T10:57:45;30.90;;;16.00;;
15673;SDS011;7937;48.090;16.212;2022-12-18T11:00:29;27.37;;;15.33;;
15673;SDS011;7937;48.090;16.212;2022-12-18T11:03:33;27.47;;;15.03;;
15673;SDS011;7937;48.090;16.212;2022-12-18T11:06:51;24.47;;;13.70;;
15673;SDS011;7937;48.090;16.212;2022-12-18T11:10:00;26.83;;;14.30;;
15673;SDS011;7937;48.090;16.212;2022-12-18T11:13:36;27.97;;;14.73;;
15673;SDS011;7937;48.090;16.212;2022-12-18T11:16:33;30.50;;;16.13;;
15673;SDS011;7937;48.090;16.212;2022-12-18T11:19:39;27.00;;;14.07;;
15673;SDS011;7937;48.090;16.212;2022-12-18T11:22:42;28.77;;;15.63;;
15673;SDS011;7937;48.090;16.212;2022-12-18T11:25:58;27.47;;;15.37;;
15673;SDS011;7937;48.090;16.212;2022-12-18T11:29:10;28.37;;;16.57;;
15673;SDS011;7937;48.090;16.212;2022-12-18T11:38:53;29.67;;;16.00;;
15673;SDS011;7937;48.090;16.212;2022-12-18T11:42:14;31.60;;;17.17;;
15673;SDS011;7937;48.090;16.212;2022-12-18T11:45:33;27.97;;;15.97;;
15673;SDS011;7937;48.090;16.212;2022-12-18T11:48:40;29.77;;;16.40;;
15673;SDS011;7937;48.090;16.212;2022-12-18T11:55:04;31.23;;;15.33;;
15673;SDS011;7937;48.090;16.212;2022-12-18T12:01:48;29.60;;;16.37;;
15673;SDS011;7937;48.090;16.212;2022-12-18T12:14:58;26.63;;;14.80;;
15673;SDS011;7937;48.090;16.212;2022-12-18T12:21:53;25.87;;;15.00;;
15673;SDS011;7937;48.090;16.212;2022-12-18T12:35:03;25.77;;;14.63;;
15673;SDS011;7937;48.090;16.212;2022-12-18T12:38:33;28.37;;;15.37;;
15673;SDS011;7937;48.090;16.212;2022-12-18T12:41:53;29.33;;;15.60;;
15673;SDS011;7937;48.090;16.212;2022-12-18T12:45:23;29.63;;;16.47;;
15673;SDS011;7937;48.090;16.212;2022-12-18T12:48:34;26.87;;;15.27;;
15673;SDS011;7937;48.090;16.212;2022-12-18T12:51:38;26.13;;;14.80;;
15673;SDS011;7937;48.090;16.212;2022-12-18T12:54:44;29.73;;;14.93;;
15673;SDS011;7937;48.090;16.212;2022-12-18T12:57:52;26.10;;;16.03;;
15673;SDS011;7937;48.090;16.212;2022-12-18T13:01:02;23.83;;;14.73;;
15673;SDS011;7937;48.090;16.212;2022-12-18T13:04:10;25.47;;;14.57;;
15673;SDS011;7937;48.090;16.212;2022-12-18T13:10:39;31.63;;;15.90;;
15673;SDS011;7937;48.090;16.212;2022-12-18T13:13:50;27.60;;;16.43;;
15673;SDS011;7937;48.090;16.212;2022-12-18T13:20:36;33.77;;;19.27;;
15673;SDS011;7937;48.090;16.212;2022-12-18T13:23:39;35.57;;;18.20;;
15673;SDS011;7937;48.090;16.212;2022-12-18T13:26:42;32.30;;;19.17;;
15673;SDS011;7937;48.090;16.212;2022-12-18T13:29:45;36.00;;;19.90;;
15673;SDS011;7937;48.090;16.212;2022-12-18T13:32:47;35.33;;;18.90;;
15673;SDS011;7937;48.090;16.212;2022-12-18T13:39:40;33.17;;;19.17;;
15673;SDS011;7937;48.090;16.212;2022-12-18T13:46:03;36.37;;;19.23;;
15673;SDS011;7937;48.090;16.212;2022-12-18T13:55:26;40.23;;;22.03;;
15673;SDS011;7937;48.090;16.212;2022-12-18T13:58:28;41.60;;;22.40;;
15673;SDS011;7937;48.090;16.212;2022-12-18T14:01:31;39.23;;;21.80;;
15673;SDS011;7937;48.090;16.212;2022-12-18T14:04:34;41.60;;;22.13;;
15673;SDS011;7937;48.090;16.212;2022-12-18T14:07:37;35.57;;;19.87;;
15673;SDS011;7937;48.090;16.212;2022-12-18T14:10:48;43.77;;;23.17;;
15673;SDS011;7937;48.090;16.212;2022-12-18T14:13:52;39.37;;;22.17;;
15673;SDS011;7937;48.090;16.212;2022-12-18T14:16:54;41.47;;;21.93;;
15673;SDS011;7937;48.090;16.212;2022-12-18T14:19:57;37.37;;;20.60;;
15673;SDS011;7937;48.090;16.212;2022-12-18T14:22:59;45.17;;;23.80;;
15673;SDS011;7937;48.090;16.212;2022-12-18T14:26:03;38.83;;;23.00;;
15673;SDS011;7937;48.090;16.212;2022-12-18T14:29:34;48.67;;;32.43;;
15673;SDS011;7937;48.090;16.212;2022-12-18T14:32:36;40.53;;;24.83;;
15673;SDS011;7937;48.090;16.212;2022-12-18T14:35:40;40.93;;;22.53;;
15673;SDS011;7937;48.090;16.212;2022-12-18T14:38:47;41.67;;;22.10;;
15673;SDS011;7937;48.090;16.212;2022-12-18T14:41:52;44.43;;;23.30;;
15673;SDS011;7937;48.090;16.212;2022-12-18T14:48:42;44.90;;;24.50;;
15673;SDS011;7937;48.090;16.212;2022-12-18T14:51:49;49.60;;;26.17;;
15673;SDS011;7937;48.090;16.212;2022-12-18T14:54:54;43.67;;;23.97;;
15673;SDS011;7937;48.090;16.212;2022-12-18T14:57:57;44.93;;;22.77;;
15673;SDS011;7937;48.090;16.212;2022-12-18T15:00:59;42.43;;;21.87;;
15673;SDS011;7937;48.090;16.212;2022-12-18T15:04:02;40.87;;;21.50;;
15673;SDS011;7937;48.090;16.212;2022-12-18T15:07:19;44.43;;;24.23;;
15673;SDS011;7937;48.090;16.212;2022-12-18T15:10:25;38.47;;;21.13;;
15673;SDS011;7937;48.090;16.212;2022-12-18T15:13:30;39.73;;;22.40;;
15673;SDS011;7937;48.090;16.212;2022-12-18T15:16:34;51.10;;;25.33;;
15673;SDS011;7937;48.090;16.212;2022-12-18T15:19:41;45.47;;;22.53;;
15673;SDS011;7937;48.090;16.212;2022-12-18T15:22:46;46.97;;;23.07;;
15673;SDS011;7937;48.090;16.212;2022-12-18T15:25:55;45.50;;;24.73;;
15673;SDS011;7937;48.090;16.212;2022-12-18T15:29:01;46.87;;;25.40;;
15673;SDS011;7937;48.090;16.212;2022-12-18T15:32:10;40.53;;;21.73;;
15673;SDS011;7937;48.090;16.212;2022-12-18T15:35:22;49.17;;;25.27;;
15673;SDS011;7937;48.090;16.212;2022-12-18T15:38:27;43.63;;;24.20;;
15673;SDS011;7937;48.090;16.212;2022-12-18T15:41:33;48.90;;;25.17;;
15673;SDS011;7937;48.090;16.212;2022-12-18T15:44:39;49.00;;;26.87;;
15673;SDS011;7937;48.090;16.212;2022-12-18T15:47:42;51.27;;;27.43;;
15673;SDS011;7937;48.090;16.212;2022-12-18T15:50:52;50.00;;;25.73;;
15673;SDS011;7937;48.090;16.212;2022-12-18T15:53:59;47.27;;;25.60;;
15673;SDS011;7937;48.090;16.212;2022-12-18T15:57:12;52.73;;;27.90;;
15673;SDS011;7937;48.090;16.212;2022-12-18T16:00:35;45.03;;;24.20;;
15673;SDS011;7937;48.090;16.212;2022-12-18T16:03:43;44.83;;;23.90;;
15673;SDS011;7937;48.090;16.212;2022-12-18T16:06:50;47.57;;;25.27;;
15673;SDS011;7937;48.090;16.212;2022-12-18T16:10:14;50.13;;;25.17;;
15673;SDS011;7937;48.090;16.212;2022-12-18T16:13:18;52.17;;;24.70;;
15673;SDS011;7937;48.090;16.212;2022-12-18T16:16:22;51.20;;;26.87;;
15673;SDS011;7937;48.090;16.212;2022-12-18T16:19:27;52.00;;;26.50;;
15673;SDS011;7937;48.090;16.212;2022-12-18T16:22:32;52.57;;;25.63;;
15673;SDS011;7937;48.090;16.212;2022-12-18T16:25:39;46.70;;;24.23;;
15673;SDS011;7937;48.090;16.212;2022-12-18T16:28:43;45.00;;;24.40;;
15673;SDS011;7937;48.090;16.212;2022-12-18T16:31:49;42.97;;;21.53;;
15673;SDS011;7937;48.090;16.212;2022-12-18T16:34:53;45.50;;;23.27;;
15673;SDS011;7937;48.090;16.212;2022-12-18T16:38:01;40.97;;;21.67;;
15673;SDS011;7937;48.090;16.212;2022-12-18T16:41:17;42.97;;;23.73;;
15673;SDS011;7937;48.090;16.212;2022-12-18T16:44:33;41.33;;;22.07;;
15673;SDS011;7937;48.090;16.212;2022-12-18T16:47:39;36.30;;;20.00;;
15673;SDS011;7937;48.090;16.212;2022-12-18T16:50:43;39.83;;;20.73;;
15673;SDS011;7937;48.090;16.212;2022-12-18T16:53:46;51.53;;;26.13;;
15673;SDS011;7937;48.090;16.212;2022-12-18T16:56:50;43.70;;;24.80;;
15673;SDS011;7937;48.090;16.212;2022-12-18T16:59:53;44.53;;;22.70;;
15673;SDS011;7937;48.090;16.212;2022-12-18T17:03:03;51.60;;;31.97;;
15673;SDS011;7937;48.090;16.212;2022-12-18T17:06:06;40.30;;;23.13;;
15673;SDS011;7937;48.090;16.212;2022-12-18T17:09:13;41.30;;;22.70;;
15673;SDS011;7937;48.090;16.212;2022-12-18T17:12:19;42.47;;;23.03;;
15673;SDS011;7937;48.090;16.212;2022-12-18T17:15:23;39.07;;;21.17;;
15673;SDS011;7937;48.090;16.212;2022-12-18T17:18:27;46.37;;;23.13;;
15673;SDS011;7937;48.090;16.212;2022-12-18T17:21:31;44.07;;;22.27;;
15673;SDS011;7937;48.090;16.212;2022-12-18T17:24:35;45.93;;;23.23;;
15673;SDS011;7937;48.090;16.212;2022-12-18T17:27:39;44.03;;;24.20;;
15673;SDS011;7937;48.090;16.212;2022-12-18T17:30:43;45.43;;;22.77;;
15673;SDS011;7937;48.090;16.212;2022-12-18T17:33:47;46.37;;;22.00;;
15673;SDS011;7937;48.090;16.212;2022-12-18T17:36:52;38.87;;;20.43;;
15673;SDS011;7937;48.090;16.212;2022-12-18T17:39:55;40.67;;;22.47;;
15673;SDS011;7937;48.090;16.212;2022-12-18T17:43:00;34.00;;;20.03;;
15673;SDS011;7937;48.090;16.212;2022-12-18T17:46:04;44.43;;;22.67;;
15673;SDS011;7937;48.090;16.212;2022-12-18T17:49:10;39.30;;;20.93;;
15673;SDS011;7937;48.090;16.212;2022-12-18T17:52:13;37.20;;;19.67;;
15673;SDS011;7937;48.090;16.212;2022-12-18T17:55:17;40.73;;;19.53;;
15673;SDS011;7937;48.090;16.212;2022-12-18T17:58:20;34.67;;;20.33;;
15673;SDS011;7937;48.090;16.212;2022-12-18T18:01:23;35.43;;;19.80;;
15673;SDS011;7937;48.090;16.212;2022-12-18T18:04:27;33.90;;;19.10;;
15673;SDS011;7937;48.090;16.212;2022-12-18T18:07:32;36.67;;;19.67;;
15673;SDS011;7937;48.090;16.212;2022-12-18T18:10:36;36.10;;;20.13;;
15673;SDS011;7937;48.090;16.212;2022-12-18T18:13:41;35.50;;;19.73;;
15673;SDS011;7937;48.090;16.212;2022-12-18T18:17:03;39.07;;;20.67;;
15673;SDS011;7937;48.090;16.212;2022-12-18T18:20:07;36.53;;;18.77;;
15673;SDS011;7937;48.090;16.212;2022-12-18T18:23:11;31.70;;;17.57;;
15673;SDS011;7937;48.090;16.212;2022-12-18T18:26:14;35.73;;;20.30;;
15673;SDS011;7937;48.090;16.212;2022-12-18T18:29:22;35.60;;;18.33;;
15673;SDS011;7937;48.090;16.212;2022-12-18T18:32:29;29.17;;;16.63;;
15673;SDS011;7937;48.090;16.212;2022-12-18T18:35:32;25.77;;;15.77;;
15673;SDS011;7937;48.090;16.212;2022-12-18T18:38:57;27.47;;;16.23;;
15673;SDS011;7937;48.090;16.212;2022-12-18T18:42:02;31.50;;;15.87;;
15673;SDS011;7937;48.090;16.212;2022-12-18T18:45:06;40.17;;;24.70;;
15673;SDS011;7937;48.090;16.212;2022-12-18T18:48:09;29.43;;;17.60;;
15673;SDS011;7937;48.090;16.212;2022-12-18T18:51:14;29.17;;;16.90;;
15673;SDS011;7937;48.090;16.212;2022-12-18T18:54:22;33.13;;;17.77;;
15673;SDS011;7937;48.090;16.212;2022-12-18T18:57:26;27.77;;;14.87;;
15673;SDS011;7937;48.090;16.212;2022-12-18T19:00:31;32.73;;;17.93;;
15673;SDS011;7937;48.090;16.212;2022-12-18T19:03:34;37.37;;;20.20;;
15673;SDS011;7937;48.090;16.212;2022-12-18T19:06:40;36.17;;;18.03;;
15673;SDS011;7937;48.090;16.212;2022-12-18T19:09:47;27.77;;;16.57;;
15673;SDS011;7937;48.090;16.212;2022-12-18T19:12:53;29.67;;;15.70;;
15673;SDS011;7937;48.090;16.212;2022-12-18T19:16:14;28.80;;;15.87;;
15673;SDS011;7937;48.090;16.212;2022-12-18T19:19:17;26.07;;;15.33;;
15673;SDS011;7937;48.090;16.212;2022-12-18T19:22:25;29.23;;;15.43;;
15673;SDS011;7937;48.090;16.212;2022-12-18T19:25:29;26.00;;;14.57;;
15673;SDS011;7937;48.090;16.212;2022-12-18T19:28:42;31.10;;;15.83;;
15673;SDS011;7937;48.090;16.212;2022-12-18T19:31:45;30.63;;;16.10;;
15673;SDS011;7937;48.090;16.212;2022-12-18T19:34:48;28.03;;;16.00;;
15673;SDS011;7937;48.090;16.212;2022-12-18T19:37:52;30.90;;;16.70;;
15673;SDS011;7937;48.090;16.212;2022-12-18T19:40:56;32.77;;;16.07;;
15673;SDS011;7937;48.090;16.212;2022-12-18T19:44:01;36.10;;;17.63;;
15673;SDS011;7937;48.090;16.212;2022-12-18T19:47:09;30.57;;;16.63;;
15673;SDS011;7937;48.090;16.212;2022-12-18T19:50:11;30.83;;;18.33;;